createdAt,value
2022-11-17T00:02:08.861Z,3.67
2022-11-17T00:04:37.497Z,3.60
2022-11-17T00:07:06.172Z,3.45
2022-11-17T00:09:36.177Z,4.00
2022-11-17T00:12:23.212Z,3.50
2022-11-17T00:14:51.921Z,3.30
2022-11-17T00:17:20.532Z,3.50
2022-11-17T00:20:06.608Z,3.92
2022-11-17T00:22:35.245Z,3.33
2022-11-17T00:25:05.416Z,3.30
2022-11-17T00:27:34.068Z,4.00
2022-11-17T00:30:02.614Z,3.60
2022-11-17T00:32:48.734Z,3.45
2022-11-17T00:35:17.331Z,2.90
2022-11-17T00:37:59.740Z,3.35
2022-11-17T00:40:29.820Z,3.08
2022-11-17T00:42:58.508Z,3.22
2022-11-17T00:45:27.131Z,3.22
2022-11-17T00:47:55.753Z,3.38
2022-11-17T00:50:24.484Z,2.92
2022-11-17T00:52:53.054Z,3.00
2022-11-17T00:55:21.674Z,2.67
2022-11-17T00:57:51.758Z,2.80
2022-11-17T01:00:21.768Z,2.70
2022-11-17T01:02:50.368Z,2.80
2022-11-17T01:05:18.943Z,2.70
2022-11-17T01:07:48.135Z,2.55
2022-11-17T01:10:16.720Z,2.30
2022-11-17T01:12:45.768Z,2.13
2022-11-17T01:15:15.906Z,2.25
2022-11-17T01:17:44.568Z,2.30
2022-11-17T01:20:13.337Z,2.60
2022-11-17T01:22:41.975Z,2.00
2022-11-17T01:25:10.831Z,2.20
2022-11-17T01:27:39.496Z,2.20
2022-11-17T01:30:08.839Z,2.30
2022-11-17T01:32:38.790Z,2.65
2022-11-17T01:35:08.040Z,2.42
2022-11-17T01:37:36.696Z,2.38
2022-11-17T01:40:05.762Z,2.30
2022-11-17T01:42:34.377Z,2.20
2022-11-17T01:45:04.374Z,1.75
2022-11-17T01:47:39.697Z,2.20
2022-11-17T01:50:11.864Z,2.20
2022-11-17T01:52:41.133Z,2.00
2022-11-17T01:55:10.622Z,2.03
2022-11-17T01:57:41.187Z,2.05
2022-11-17T02:00:11.377Z,1.65
2022-11-17T02:02:41.249Z,1.65
2022-11-17T02:05:19.485Z,1.63
2022-11-17T02:07:49.259Z,1.95
2022-11-17T02:10:18.189Z,1.83
2022-11-17T02:12:47.139Z,1.60
2022-11-17T02:15:15.751Z,1.85
2022-11-17T02:17:44.922Z,1.70
2022-11-17T02:20:16.504Z,1.70
2022-11-17T02:25:32.209Z,1.58
2022-11-17T02:28:04.975Z,1.80
2022-11-17T02:30:36.546Z,1.95
2022-11-17T02:35:38.557Z,1.60
2022-11-17T02:38:10.582Z,1.70
2022-11-17T02:40:41.635Z,2.10
2022-11-17T02:43:30.714Z,1.35
2022-11-17T02:46:02.018Z,1.70
2022-11-17T02:48:33.648Z,1.92
2022-11-17T02:53:31.448Z,1.40
2022-11-17T02:56:01.967Z,1.40
2022-11-17T02:58:32.004Z,1.92
2022-11-17T03:01:06.619Z,1.77
2022-11-17T03:03:41.019Z,1.63
2022-11-17T03:06:17.234Z,1.20
2022-11-17T03:08:49.543Z,1.60
2022-11-17T03:11:18.402Z,1.40
2022-11-17T03:13:51.375Z,1.63
2022-11-17T03:16:27.349Z,1.38
2022-11-17T03:19:01.144Z,1.50
2022-11-17T03:21:30.938Z,1.50
2022-11-17T03:24:04.350Z,1.67
2022-11-17T03:26:34.333Z,1.45
2022-11-17T03:29:07.271Z,1.25
2022-11-17T03:31:37.026Z,1.35
2022-11-17T03:34:07.662Z,1.20
2022-11-17T03:36:37.700Z,1.58
2022-11-17T03:39:08.477Z,1.38
2022-11-17T03:41:40.071Z,1.30
2022-11-17T03:46:38.898Z,1.10
2022-11-17T03:49:09.762Z,1.10
2022-11-17T03:51:38.617Z,1.02
2022-11-17T03:54:07.466Z,1.10
2022-11-17T03:56:39.384Z,0.90
2022-11-17T03:59:12.125Z,1.05
2022-11-17T04:01:42.106Z,0.90
2022-11-17T04:04:14.932Z,1.05
2022-11-17T04:06:43.542Z,0.90
2022-11-17T04:09:12.146Z,1.00
2022-11-17T04:11:58.253Z,0.80
2022-11-17T04:14:44.482Z,0.73
2022-11-17T04:17:14.637Z,0.80
2022-11-17T04:19:43.261Z,1.00
2022-11-17T04:22:11.825Z,0.82
2022-11-17T04:24:40.434Z,0.80
2022-11-17T04:27:37.990Z,0.88
2022-11-17T04:30:07.217Z,0.80
2022-11-17T04:32:37.184Z,0.77
2022-11-17T04:35:06.180Z,0.60
2022-11-17T04:37:34.878Z,0.90
2022-11-17T04:40:03.774Z,0.73
2022-11-17T04:42:31.445Z,1.00
2022-11-17T04:45:00.023Z,0.80
2022-11-17T04:47:28.587Z,1.08
2022-11-17T04:49:58.896Z,0.77
2022-11-17T04:52:29.960Z,0.90
2022-11-17T04:54:58.736Z,0.50
2022-11-17T04:57:27.386Z,0.65
2022-11-17T04:59:55.971Z,0.85
2022-11-17T05:02:24.728Z,0.63
2022-11-17T05:04:59.158Z,0.63
2022-11-17T05:07:29.235Z,0.60
2022-11-17T05:09:57.907Z,1.00
2022-11-17T05:12:44.052Z,0.70
2022-11-17T05:15:32.630Z,0.80
2022-11-17T05:18:00.282Z,0.60
2022-11-17T05:20:28.871Z,0.70
2022-11-17T05:23:31.025Z,0.80
2022-11-17T05:25:59.623Z,0.68
2022-11-17T05:28:28.452Z,0.70
2022-11-17T05:30:57.069Z,0.57
2022-11-17T05:33:25.676Z,0.70
2022-11-17T05:35:54.308Z,0.80
2022-11-17T05:38:24.211Z,0.80
2022-11-17T05:40:52.816Z,0.60
2022-11-17T05:43:21.383Z,0.80
2022-11-17T05:45:50.133Z,0.80
2022-11-17T05:48:18.803Z,0.80
2022-11-17T05:50:47.826Z,0.60
2022-11-17T05:53:16.482Z,0.77
2022-11-17T05:55:46.525Z,1.23
2022-11-17T05:58:18.434Z,1.23
2022-11-17T06:00:47.165Z,1.38
2022-11-17T06:03:17.348Z,1.20
2022-11-17T06:05:45.968Z,1.40
2022-11-17T06:08:14.578Z,1.50
2022-11-17T06:10:43.196Z,1.10
2022-11-17T06:13:13.173Z,1.50
2022-11-17T06:15:41.892Z,1.40
2022-11-17T06:18:12.269Z,2.35
2022-11-17T06:20:42.956Z,3.63
2022-11-17T06:23:12.825Z,2.53
2022-11-17T06:25:41.664Z,2.50
2022-11-17T06:28:19.261Z,2.05
2022-11-17T06:30:49.894Z,1.80
2022-11-17T06:33:19.435Z,1.73
2022-11-17T06:35:48.458Z,2.08
2022-11-17T06:38:17.113Z,2.10
2022-11-17T06:40:45.672Z,2.22
2022-11-17T06:43:14.280Z,1.40
2022-11-17T06:45:44.417Z,1.65
2022-11-17T06:48:15.482Z,1.58
2022-11-17T06:50:44.341Z,1.67
2022-11-17T06:53:13.820Z,1.75
2022-11-17T06:55:42.419Z,1.80
2022-11-17T06:58:12.864Z,5.68
2022-11-17T07:00:41.478Z,4.05
2022-11-17T07:03:11.228Z,3.00
2022-11-17T07:05:41.514Z,3.25
2022-11-17T07:08:10.402Z,3.20
2022-11-17T07:10:39.023Z,2.70
2022-11-17T07:13:08.984Z,3.20
2022-11-17T07:15:37.519Z,2.53
2022-11-17T07:18:06.298Z,2.67
2022-11-17T07:20:34.882Z,2.13
2022-11-17T07:23:04.950Z,1.75
2022-11-17T07:25:33.570Z,1.83
2022-11-17T07:28:02.208Z,1.73
2022-11-17T07:30:30.940Z,1.40
2022-11-17T07:33:00.366Z,1.92
2022-11-17T07:35:29.357Z,1.30
2022-11-17T07:38:01.609Z,1.48
2022-11-17T07:40:31.970Z,1.70
2022-11-17T07:43:01.237Z,1.75
2022-11-17T07:45:32.450Z,1.50
2022-11-17T07:48:01.687Z,1.45
2022-11-17T07:50:30.576Z,1.48
2022-11-17T07:52:59.378Z,1.70
2022-11-17T07:55:28.019Z,1.70
2022-11-17T07:57:58.798Z,1.40
2022-11-17T08:00:28.310Z,1.20
2022-11-17T08:02:57.023Z,1.70
2022-11-17T08:05:26.069Z,1.50
2022-11-17T08:07:56.688Z,1.60
2022-11-17T08:10:27.108Z,1.63
2022-11-17T08:12:56.177Z,1.50
2022-11-17T08:15:26.207Z,1.42
2022-11-17T08:17:55.409Z,1.67
2022-11-17T08:20:24.714Z,1.38
2022-11-17T08:22:54.349Z,2.55
2022-11-17T08:25:23.470Z,2.83
2022-11-17T08:27:52.133Z,2.90
2022-11-17T08:30:21.477Z,2.10
2022-11-17T08:32:52.166Z,2.90
2022-11-17T08:35:21.515Z,4.00
2022-11-17T08:37:50.146Z,2.90
2022-11-17T08:40:19.410Z,2.53
2022-11-17T08:42:48.177Z,2.72
2022-11-17T08:45:16.848Z,2.35
2022-11-17T08:47:45.415Z,2.22
2022-11-17T08:50:15.472Z,1.88
2022-11-17T08:52:44.135Z,2.28
2022-11-17T08:55:12.804Z,2.03
2022-11-17T08:57:41.565Z,1.95
2022-11-17T09:00:10.890Z,2.45
2022-11-17T09:02:39.656Z,2.15
2022-11-17T09:05:08.889Z,2.10
2022-11-17T09:07:38.900Z,2.05
2022-11-17T09:10:11.196Z,1.75
2022-11-17T09:12:39.945Z,1.75
2022-11-17T09:15:09.235Z,1.40
2022-11-17T09:17:37.829Z,1.50
2022-11-17T09:20:06.928Z,1.60
2022-11-17T09:22:35.653Z,1.60
2022-11-17T09:25:11.866Z,1.75
2022-11-17T09:27:41.934Z,1.70
2022-11-17T09:30:11.183Z,1.58
2022-11-17T09:32:39.826Z,1.63
2022-11-17T09:35:09.430Z,1.80
2022-11-17T09:37:38.517Z,1.50
2022-11-17T09:40:09.579Z,1.35
2022-11-17T09:42:40.630Z,1.65
2022-11-17T09:45:11.158Z,1.58
2022-11-17T09:47:43.236Z,1.40
2022-11-17T09:50:18.255Z,1.63
2022-11-17T09:52:51.622Z,1.65
2022-11-17T09:55:31.167Z,1.60
2022-11-17T09:58:09.313Z,1.75
2022-11-17T10:00:38.776Z,1.65
2022-11-17T10:03:12.756Z,1.77
2022-11-17T10:05:41.428Z,2.40
2022-11-17T10:08:13.125Z,2.10
2022-11-17T10:13:16.338Z,2.50
2022-11-17T10:15:48.198Z,2.72
2022-11-17T10:18:17.608Z,2.15
2022-11-17T10:20:46.574Z,2.50
2022-11-17T10:23:16.778Z,2.20
2022-11-17T10:25:46.251Z,2.53
2022-11-17T10:28:29.751Z,2.75
2022-11-17T10:31:00.793Z,2.60
2022-11-17T10:33:37.411Z,3.03
2022-11-17T10:36:08.135Z,3.08
2022-11-17T10:38:36.923Z,3.13
2022-11-17T10:41:05.592Z,3.00
2022-11-17T10:43:37.285Z,3.20
2022-11-17T10:46:07.098Z,3.05
2022-11-17T10:48:36.637Z,3.22
2022-11-17T10:51:09.240Z,3.20
2022-11-17T10:53:45.040Z,2.95
2022-11-17T10:56:16.164Z,2.90
2022-11-17T10:59:08.950Z,2.67
2022-11-17T11:01:39.702Z,2.97
2022-11-17T11:04:09.839Z,2.87
2022-11-17T11:06:38.563Z,2.78
2022-11-17T11:09:11.770Z,3.33
2022-11-17T11:11:43.720Z,3.05
2022-11-17T11:14:21.240Z,3.10
2022-11-17T11:16:51.894Z,2.78
2022-11-17T11:19:21.982Z,3.00
2022-11-17T11:22:05.006Z,3.10
2022-11-17T11:24:36.796Z,3.03
2022-11-17T11:27:09.565Z,3.08
2022-11-17T11:29:47.311Z,3.45
2022-11-17T11:32:23.333Z,2.38
2022-11-17T11:35:03.907Z,2.30
2022-11-17T11:37:37.080Z,2.70
2022-11-17T11:40:11.921Z,3.20
2022-11-17T11:42:47.896Z,3.08
2022-11-17T11:45:31.592Z,2.85
2022-11-17T11:48:08.052Z,2.65
2022-11-17T11:50:41.765Z,2.50
2022-11-17T11:53:16.951Z,2.10
2022-11-17T11:55:46.819Z,2.30
2022-11-17T11:58:17.548Z,1.95
2022-11-17T12:00:46.574Z,2.33
2022-11-17T12:03:21.689Z,2.08
2022-11-17T12:05:57.813Z,2.17
2022-11-17T12:08:31.102Z,1.92
2022-11-17T12:11:22.535Z,1.90
2022-11-17T12:13:54.363Z,1.67
2022-11-17T12:16:30.470Z,1.60
2022-11-17T12:19:00.536Z,1.80
2022-11-17T12:21:29.573Z,1.80
2022-11-17T12:24:04.835Z,1.30
2022-11-17T12:26:34.897Z,1.20
2022-11-17T12:29:22.148Z,0.98
2022-11-17T12:31:51.256Z,0.93
2022-11-17T12:34:24.280Z,0.73
2022-11-17T12:37:23.299Z,1.02
2022-11-17T12:40:12.721Z,0.90
2022-11-17T12:43:01.343Z,0.80
2022-11-17T12:45:30.203Z,0.93
2022-11-17T12:48:18.809Z,0.90
2022-11-17T12:50:52.061Z,2.22
2022-11-17T12:53:38.292Z,1.10
2022-11-17T12:56:28.151Z,0.90
2022-11-17T12:59:02.217Z,1.08
2022-11-17T13:01:36.063Z,1.70
2022-11-17T13:04:09.616Z,1.20
2022-11-17T13:06:39.760Z,1.00
2022-11-17T13:09:09.249Z,0.75
2022-11-17T13:11:37.969Z,0.88
2022-11-17T13:14:11.240Z,1.08
2022-11-17T13:16:45.508Z,1.02
2022-11-17T13:19:39.369Z,1.08
2022-11-17T13:22:15.869Z,3.00
2022-11-17T13:24:45.547Z,1.95
2022-11-17T13:27:22.248Z,1.95
2022-11-17T13:29:50.965Z,1.50
2022-11-17T13:32:21.380Z,1.35
2022-11-17T13:34:51.582Z,1.50
2022-11-17T13:37:23.069Z,1.20
2022-11-17T13:42:21.149Z,1.45
2022-11-17T13:44:50.264Z,1.40
2022-11-17T13:47:22.697Z,1.30
2022-11-17T13:49:52.052Z,1.50
2022-11-17T13:52:38.000Z,1.27
2022-11-17T13:55:11.680Z,1.13
2022-11-17T13:57:40.360Z,1.00
2022-11-17T14:00:18.073Z,1.58
2022-11-17T14:02:53.918Z,2.17
2022-11-17T14:05:26.596Z,1.45
2022-11-17T14:07:57.400Z,1.05
2022-11-17T14:10:31.446Z,1.30
2022-11-17T14:13:24.246Z,1.30
2022-11-17T14:15:54.938Z,1.40
2022-11-17T14:18:28.064Z,1.10
2022-11-17T14:21:14.782Z,1.08
2022-11-17T14:23:45.573Z,1.20
2022-11-17T14:26:21.548Z,1.37
2022-11-17T14:28:50.599Z,1.70
2022-11-17T14:31:19.616Z,1.58
2022-11-17T14:33:50.598Z,1.42
2022-11-17T14:36:20.003Z,1.30
2022-11-17T14:38:50.016Z,1.60
2022-11-17T14:41:19.298Z,1.30
2022-11-17T14:43:48.181Z,2.05
2022-11-17T14:46:19.925Z,1.27
2022-11-17T14:48:48.695Z,1.30
2022-11-17T14:51:17.384Z,0.93
2022-11-17T14:53:46.283Z,1.63
2022-11-17T14:56:17.870Z,1.60
2022-11-17T14:58:47.394Z,1.70
2022-11-17T15:01:18.044Z,1.15
2022-11-17T15:03:47.522Z,1.20
2022-11-17T15:06:19.951Z,1.13
2022-11-17T15:08:49.172Z,1.10
2022-11-17T15:11:19.951Z,1.20
2022-11-17T15:13:48.586Z,1.52
2022-11-17T15:16:17.198Z,1.77
2022-11-17T15:18:49.371Z,1.00
2022-11-17T15:21:18.459Z,1.40
2022-11-17T15:23:47.079Z,1.10
2022-11-17T15:26:16.959Z,1.38
2022-11-17T15:28:47.314Z,1.58
2022-11-17T15:31:16.558Z,1.70
2022-11-17T15:33:45.750Z,1.63
2022-11-17T15:36:15.193Z,1.70
2022-11-17T15:38:43.916Z,2.70
2022-11-17T15:41:13.856Z,2.00
2022-11-17T15:43:43.382Z,2.95
2022-11-17T15:46:15.694Z,2.70
2022-11-17T15:48:44.993Z,3.35
2022-11-17T15:51:14.582Z,2.80
2022-11-17T15:53:43.712Z,3.50
2022-11-17T15:56:13.260Z,3.22
2022-11-17T15:58:42.576Z,2.83
2022-11-17T16:01:12.332Z,3.50
2022-11-17T16:03:42.779Z,3.00
2022-11-17T16:06:11.738Z,3.00
2022-11-17T16:08:40.944Z,2.90
2022-11-17T16:11:09.896Z,3.10
2022-11-17T16:13:38.537Z,3.50
2022-11-17T16:16:07.890Z,3.13
2022-11-17T16:18:38.527Z,3.50
2022-11-17T16:21:10.071Z,3.47
2022-11-17T16:26:07.273Z,2.70
2022-11-17T16:28:35.908Z,2.45
2022-11-17T16:31:13.459Z,2.90
2022-11-17T16:33:42.150Z,3.10
2022-11-17T16:36:12.438Z,2.60
2022-11-17T16:38:49.863Z,2.50
2022-11-17T16:41:30.024Z,2.25
2022-11-17T16:43:58.688Z,3.35
2022-11-17T16:46:28.791Z,2.10
2022-11-17T16:48:57.885Z,2.33
2022-11-17T16:51:27.959Z,2.28
2022-11-17T16:53:57.286Z,2.92
2022-11-17T16:56:26.027Z,2.20
2022-11-17T16:58:55.177Z,2.25
2022-11-17T17:01:24.577Z,4.38
2022-11-17T17:03:57.131Z,2.90
2022-11-17T17:06:26.266Z,3.08
2022-11-17T17:08:56.966Z,3.50
2022-11-17T17:11:25.899Z,3.00
2022-11-17T17:13:56.383Z,3.03
2022-11-17T17:16:25.867Z,3.00
2022-11-17T17:18:56.863Z,2.63
2022-11-17T17:21:25.538Z,3.38
2022-11-17T17:23:54.109Z,3.28
2022-11-17T17:26:25.023Z,3.72
2022-11-17T17:28:55.811Z,3.30
2022-11-17T17:31:25.192Z,3.40
2022-11-17T17:33:54.382Z,3.42
2022-11-17T17:36:24.083Z,3.05
2022-11-17T17:38:55.913Z,3.45
2022-11-17T17:41:27.421Z,3.80
2022-11-17T17:43:58.017Z,19.00
2022-11-17T17:46:26.838Z,39.88
2022-11-17T17:48:56.471Z,82.63
2022-11-17T17:51:26.338Z,131.63
2022-11-17T17:53:58.536Z,182.90
2022-11-17T17:56:30.476Z,106.43
2022-11-17T17:58:59.433Z,86.75
2022-11-17T18:01:28.636Z,72.43
2022-11-17T18:04:01.529Z,65.32
2022-11-17T18:06:30.742Z,70.80
2022-11-17T18:08:59.515Z,81.40
2022-11-17T18:11:29.528Z,75.20
2022-11-17T18:13:58.221Z,56.25
2022-11-17T18:16:27.957Z,162.35
2022-11-17T18:19:00.507Z,518.53
2022-11-17T18:21:29.965Z,125.70
2022-11-17T18:23:59.123Z,411.17
2022-11-17T18:26:30.279Z,77.93
2022-11-17T18:28:59.686Z,55.03
2022-11-17T18:31:29.244Z,41.45
2022-11-17T18:33:58.765Z,39.28
2022-11-17T18:36:27.795Z,38.17
2022-11-17T18:38:58.595Z,216.07
2022-11-17T18:41:30.748Z,205.73
2022-11-17T18:44:00.847Z,141.40
2022-11-17T18:46:30.164Z,203.68
2022-11-17T18:49:00.300Z,145.82
2022-11-17T18:51:30.063Z,87.97
2022-11-17T18:53:59.688Z,96.80
2022-11-17T18:56:29.044Z,57.70
2022-11-17T18:58:57.650Z,44.33
2022-11-17T19:01:29.071Z,38.38
2022-11-17T19:06:26.745Z,165.43
2022-11-17T19:08:55.460Z,31.70
2022-11-17T19:11:24.557Z,30.38
2022-11-17T19:13:53.551Z,25.13
2022-11-17T19:16:23.286Z,23.15
2022-11-17T19:18:54.446Z,101.93
2022-11-17T19:21:25.852Z,53.58
2022-11-17T19:23:55.190Z,72.18
2022-11-17T19:26:25.320Z,62.00
2022-11-17T19:28:56.826Z,100.40
2022-11-17T19:31:25.782Z,77.22
2022-11-17T19:33:56.411Z,74.63
2022-11-17T19:36:26.034Z,68.05
2022-11-17T19:38:55.906Z,53.60
2022-11-17T19:41:25.735Z,42.53
2022-11-17T19:43:55.076Z,32.28
2022-11-17T19:46:24.485Z,37.03
2022-11-17T19:48:53.115Z,86.13
2022-11-17T19:51:23.921Z,99.50
2022-11-17T19:53:53.511Z,101.10
2022-11-17T19:56:22.805Z,96.65
2022-11-17T19:58:51.629Z,86.45
2022-11-17T20:01:21.290Z,83.85
2022-11-17T20:03:50.023Z,66.00
2022-11-17T20:06:20.051Z,57.13
2022-11-17T20:08:50.611Z,46.88
2022-11-17T20:11:20.030Z,40.83
2022-11-17T20:13:48.975Z,38.55
2022-11-17T20:16:18.687Z,40.65
2022-11-17T20:18:50.156Z,67.60
2022-11-17T20:21:18.848Z,79.70
2022-11-17T20:23:47.710Z,79.35
2022-11-17T20:26:19.023Z,71.18
2022-11-17T20:28:48.009Z,58.90
2022-11-17T20:31:19.549Z,46.95
2022-11-17T20:33:48.909Z,50.97
2022-11-17T20:36:18.296Z,39.85
2022-11-17T20:38:47.771Z,38.20
2022-11-17T20:41:17.984Z,32.70
2022-11-17T20:43:49.230Z,29.73
2022-11-17T20:46:17.921Z,23.67
2022-11-17T20:48:46.714Z,18.05
2022-11-17T20:51:16.143Z,14.68
2022-11-17T20:53:45.071Z,11.40
2022-11-17T20:56:14.562Z,9.07
2022-11-17T20:58:44.619Z,7.38
2022-11-17T21:01:14.578Z,6.50
2022-11-17T21:03:43.508Z,6.40
2022-11-17T21:06:12.616Z,5.80
2022-11-17T21:08:43.375Z,5.35
2022-11-17T21:11:33.049Z,5.60
2022-11-17T21:14:03.299Z,5.28
2022-11-17T21:16:31.948Z,4.90
2022-11-17T21:19:00.613Z,5.15
2022-11-17T21:21:30.577Z,4.95
2022-11-17T21:23:59.666Z,4.50
2022-11-17T21:26:29.062Z,4.95
2022-11-17T21:29:03.185Z,4.82
2022-11-17T21:31:36.254Z,4.85
2022-11-17T21:34:06.366Z,4.78
2022-11-17T21:36:36.327Z,5.35
2022-11-17T21:39:08.459Z,5.05
2022-11-17T21:41:38.622Z,5.45
2022-11-17T21:44:07.314Z,4.78
2022-11-17T21:46:37.303Z,4.95
2022-11-17T21:49:06.500Z,3.90
2022-11-17T21:51:40.496Z,4.25
2022-11-17T21:54:10.105Z,3.30
2022-11-17T21:56:38.781Z,4.10
2022-11-17T21:59:08.495Z,3.83
2022-11-17T22:01:39.816Z,4.20
2022-11-17T22:04:08.579Z,3.97
2022-11-17T22:06:37.079Z,3.42
2022-11-17T22:09:05.835Z,3.78
2022-11-17T22:11:38.133Z,4.10
2022-11-17T22:14:08.430Z,3.92
2022-11-17T22:16:39.192Z,3.78
2022-11-17T22:19:08.120Z,4.30
2022-11-17T22:21:37.516Z,4.40
2022-11-17T22:24:06.520Z,3.83
2022-11-17T22:26:38.214Z,3.78
2022-11-17T22:29:07.683Z,4.22
2022-11-17T22:31:36.508Z,3.70
2022-11-17T22:34:06.569Z,4.20
2022-11-17T22:36:35.263Z,4.40
2022-11-17T22:39:03.913Z,3.53
2022-11-17T22:41:32.864Z,3.90
2022-11-17T22:44:01.465Z,2.92
2022-11-17T22:46:30.630Z,3.08
2022-11-17T22:48:59.288Z,2.25
2022-11-17T22:51:46.557Z,2.25
2022-11-17T22:54:15.325Z,2.20
2022-11-17T22:56:44.197Z,1.85
2022-11-17T22:59:12.783Z,1.58
2022-11-17T23:01:41.498Z,1.52
2022-11-17T23:04:10.120Z,1.50
2022-11-17T23:06:40.068Z,1.10
2022-11-17T23:09:08.804Z,1.50
2022-11-17T23:11:38.346Z,1.38
2022-11-17T23:14:08.240Z,1.20
2022-11-17T23:16:37.557Z,1.25
2022-11-17T23:19:06.756Z,1.60
2022-11-17T23:21:35.491Z,1.23
2022-11-17T23:24:05.598Z,1.20
2022-11-17T23:26:34.385Z,1.02
2022-11-17T23:29:03.000Z,1.10
2022-11-17T23:31:31.645Z,1.13
2022-11-17T23:34:00.324Z,1.40
2022-11-17T23:36:29.078Z,1.50
2022-11-17T23:38:58.062Z,1.33
2022-11-17T23:41:28.885Z,1.80
2022-11-17T23:43:57.485Z,1.10
2022-11-17T23:46:27.313Z,1.10
2022-11-17T23:48:57.126Z,1.30
2022-11-17T23:51:26.456Z,1.10
2022-11-17T23:53:55.551Z,1.17
2022-11-17T23:56:24.499Z,1.15
2022-11-17T23:58:54.441Z,1.00
